Time;durP1;ratioP1;P1;durP2;ratioP2;P2;SDS_P1;SDS_P2;PMS_P1;PMS_P2;Temp;Humidity;BMP_temperature;BMP_pressure;BME280_temperature;BME280_humidity;BME280_pressure;Samples;Min_cycle;Max_cycle;Signal;HPM_P1;HPM_P2
2022/04/22 00:00:28;;;;;;;14.32;8.32;;;11.80;91.30;;;;;;6040408;23;104992;-70
2022/04/22 00:02:55;;;;;;;12.23;7.60;;;11.80;91.30;;;;;;6039190;23;95595;-70
2022/04/22 00:05:22;;;;;;;11.10;7.88;;;11.80;91.30;;;;;;6041019;23;94211;-70
2022/04/22 00:07:49;;;;;;;12.15;8.65;;;11.70;91.40;;;;;;6016657;23;92421;-70
2022/04/22 00:10:16;;;;;;;18.02;8.75;;;11.70;91.60;;;;;;6041113;23;92501;-70
2022/04/22 00:12:44;;;;;;;17.55;8.75;;;11.70;91.70;;;;;;6040280;23;95811;-70
2022/04/22 00:15:13;;;;;;;14.13;9.20;;;11.70;91.70;;;;;;6040438;23;93231;-70
2022/04/22 00:17:41;;;;;;;14.25;8.00;;;11.70;91.70;;;;;;6066424;23;92861;-69
2022/04/22 00:20:10;;;;;;;12.35;7.93;;;11.60;91.70;;;;;;6041453;23;91780;-70
2022/04/22 00:22:41;;;;;;;13.73;8.25;;;11.60;91.90;;;;;;6016287;23;95747;-70
2022/04/22 00:25:10;;;;;;;11.25;8.15;;;11.60;92.00;;;;;;6066744;23;93027;-70
2022/04/22 00:27:38;;;;;;;12.40;8.27;;;11.50;92.00;;;;;;6039688;23;94779;-69
2022/04/22 00:30:11;;;;;;;16.83;8.88;;;11.50;92.20;;;;;;6040062;23;93606;-69
2022/04/22 00:32:38;;;;;;;12.63;7.90;;;11.50;92.30;;;;;;6065991;23;92469;-70
2022/04/22 00:35:06;;;;;;;12.88;8.57;;;11.40;92.50;;;;;;6016047;23;95889;-70
2022/04/22 00:37:34;;;;;;;18.15;9.13;;;11.40;92.60;;;;;;6040706;23;92422;-70
2022/04/22 00:40:01;;;;;;;13.30;9.70;;;11.40;92.60;;;;;;6040690;23;92407;-69
2022/04/22 00:42:28;;;;;;;14.10;8.70;;;11.40;92.50;;;;;;6040405;23;95649;-69
2022/04/22 00:44:57;;;;;;;14.63;7.70;;;11.40;92.50;;;;;;6064314;23;109413;-69
2022/04/22 00:47:24;;;;;;;12.30;8.60;;;11.30;92.60;;;;;;6040996;23;92486;-69
2022/04/22 00:49:52;;;;;;;12.18;8.23;;;11.30;92.70;;;;;;6064762;23;92302;-70
2022/04/22 00:52:21;;;;;;;13.77;8.38;;;11.20;92.80;;;;;;6038722;23;98207;-70
2022/04/22 00:54:48;;;;;;;13.95;9.18;;;11.20;92.80;;;;;;6039812;23;97897;-69
2022/04/22 00:57:18;;;;;;;14.02;8.43;;;11.10;92.90;;;;;;6016793;23;92442;-70
2022/04/22 00:59:46;;;;;;;12.90;8.73;;;11.10;92.90;;;;;;6066155;23;97654;-70
2022/04/22 01:02:13;;;;;;;10.55;7.90;;;11.00;93.00;;;;;;6066364;23;92500;-69
2022/04/22 01:10:12;;;;;;;12.13;8.43;;;10.80;93.50;;;;;;6067026;23;92013;-69
2022/04/22 01:12:39;;;;;;;12.48;8.20;;;10.70;93.70;;;;;;6066248;23;93192;-70
2022/04/22 01:15:06;;;;;;;12.70;8.23;;;10.70;93.70;;;;;;6016003;23;95426;-69
2022/04/22 01:17:33;;;;;;;17.70;8.90;;;10.60;93.80;;;;;;6039740;23;94895;-70
2022/04/22 01:20:00;;;;;;;11.73;8.20;;;10.60;93.90;;;;;;6039997;23;95962;-69
2022/04/22 01:22:27;;;;;;;12.50;9.27;;;10.60;94.00;;;;;;6066473;23;92869;-70
2022/04/22 01:25:04;;;;;;;15.32;9.48;;;10.50;94.10;;;;;;6015874;23;95506;-70
2022/04/22 01:27:32;;;;;;;16.38;9.38;;;10.50;94.20;;;;;;6066569;23;92387;-69
2022/04/22 01:30:06;;;;;;;18.02;9.27;;;10.40;94.20;;;;;;6040087;23;92586;-69
2022/04/22 01:32:33;;;;;;;;;;;10.40;94.40;;;;;;6064600;23;96184;-69
2022/04/22 01:35:00;;;;;;;16.98;10.10;;;10.30;94.30;;;;;;6042151;23;92670;-69
2022/04/22 01:37:27;;;;;;;19.10;10.38;;;10.30;94.40;;;;;;6016265;23;92354;-70
2022/04/22 01:39:53;;;;;;;13.40;9.13;;;10.30;94.40;;;;;;6039074;23;99051;-70
2022/04/22 01:42:20;;;;;;;13.38;9.05;;;10.20;94.40;;;;;;6038467;23;98060;-70
2022/04/22 01:44:49;;;;;;;15.98;10.45;;;10.20;94.50;;;;;;6040241;23;97877;-70
2022/04/22 01:47:16;;;;;;;16.10;9.60;;;10.20;94.50;;;;;;6065438;23;92310;-70
2022/04/22 01:49:43;;;;;;;16.08;10.25;;;10.20;94.50;;;;;;6066138;23;92878;-70
2022/04/22 01:52:10;;;;;;;14.38;8.27;;;10.10;94.50;;;;;;6039447;23;93107;-70
2022/04/22 01:54:37;;;;;;;21.42;9.07;;;10.10;94.50;;;;;;6040539;23;92405;-70
2022/04/22 01:57:05;;;;;;;18.70;9.20;;;10.10;94.50;;;;;;6040027;23;92500;-70
2022/04/22 01:59:33;;;;;;;15.32;8.65;;;10.10;94.40;;;;;;6066722;23;91671;-70
2022/04/22 02:02:00;;;;;;;14.23;8.30;;;10.10;94.40;;;;;;6065832;23;93199;-70
2022/04/22 02:04:28;;;;;;;11.27;8.02;;;10.10;94.30;;;;;;6040725;23;92949;-70
2022/04/22 02:06:54;;;;;;;11.05;8.48;;;10.00;94.20;;;;;;6064877;23;94790;-69
2022/04/22 02:09:21;;;;;;;10.82;8.30;;;10.10;94.20;;;;;;6066225;23;92430;-69
2022/04/22 02:11:48;;;;;;;16.20;8.32;;;10.10;94.00;;;;;;6066172;23;93209;-70
2022/04/22 02:14:15;;;;;;;13.35;8.27;;;10.00;94.00;;;;;;6015893;23;94668;-70
2022/04/22 02:16:42;;;;;;;13.32;8.50;;;10.00;94.00;;;;;;6040654;23;92554;-70
2022/04/22 02:19:09;;;;;;;8.63;6.80;;;10.00;94.10;;;;;;6040286;23;92464;-69
2022/04/22 02:21:36;;;;;;;11.82;7.22;;;10.00;94.20;;;;;;6040357;23;93092;-69
2022/04/22 02:24:03;;;;;;;12.98;7.90;;;9.90;94.20;;;;;;6066151;23;92942;-69
2022/04/22 02:28:31;;;;;;;11.80;7.45;;;9.90;94.20;;;;;;6039381;23;106005;-69
2022/04/22 02:29:18;;;;;;;11.32;7.70;;;9.90;94.10;;;;;;6040124;23;93060;-69
2022/04/22 02:31:46;;;;;;;10.95;7.53;;;9.90;94.40;;;;;;6037627;23;103999;-70
2022/04/22 02:34:13;;;;;;;9.55;7.22;;;9.80;94.10;;;;;;6065678;23;95415;-69
2022/04/22 02:36:42;;;;;;;11.43;7.53;;;9.80;94.00;;;;;;6065941;23;92482;-69
2022/04/22 02:39:09;;;;;;;12.63;7.50;;;9.80;94.00;;;;;;6040074;23;92840;-69
2022/04/22 02:47:07;;;;;;;9.13;6.35;;;9.70;93.70;;;;;;6065825;23;92339;-69
2022/04/22 02:49:34;;;;;;;9.43;6.55;;;9.70;93.70;;;;;;6040713;23;91684;-69
2022/04/22 02:52:01;;;;;;;11.98;6.40;;;9.70;93.80;;;;;;6039853;23;93088;-70
2022/04/22 02:54:30;;;;;;;9.77;5.90;;;9.60;93.50;;;;;;6065677;23;92893;-70
2022/04/22 02:56:58;;;;;;;8.35;5.50;;;9.60;93.40;;;;;;6039411;23;94768;-70
2022/04/22 02:59:25;;;;;;;8.00;5.82;;;9.60;93.20;;;;;;6065594;23;92407;-70
2022/04/22 03:01:52;;;;;;;9.05;6.53;;;9.60;93.30;;;;;;6039698;23;95655;-71
2022/04/22 03:04:19;;;;;;;10.80;5.85;;;9.60;93.20;;;;;;6064716;23;100643;-71
2022/04/22 03:06:46;;;;;;;5.07;4.43;;;9.60;93.30;;;;;;6039562;23;92535;-70
2022/04/22 03:09:13;;;;;;;8.38;5.43;;;9.60;93.20;;;;;;6039755;23;92408;-71
2022/04/22 03:11:40;;;;;;;7.72;5.53;;;9.50;93.30;;;;;;6039703;23;93218;-70
2022/04/22 03:14:07;;;;;;;8.73;5.20;;;9.50;93.20;;;;;;6039522;23;106346;-71
2022/04/22 03:16:35;;;;;;;6.40;4.85;;;9.50;93.10;;;;;;6039766;23;92820;-71
2022/04/22 03:19:02;;;;;;;8.73;5.05;;;9.40;93.10;;;;;;6065574;23;92436;-71
2022/04/22 03:21:29;;;;;;;6.15;4.97;;;9.40;93.00;;;;;;6063782;23;96732;-71
2022/04/22 03:23:57;;;;;;;6.22;5.00;;;9.30;93.00;;;;;;6039275;23;98018;-71
2022/04/22 03:26:24;;;;;;;8.40;4.93;;;9.30;93.00;;;;;;6040086;23;92517;-71
2022/04/22 03:28:55;;;;;;;6.95;5.03;;;9.30;93.00;;;;;;6040699;23;92444;-71
2022/04/22 03:31:22;;;;;;;10.18;5.55;;;9.30;93.00;;;;;;6015072;23;95735;-70
2022/04/22 03:33:49;;;;;;;9.73;5.47;;;9.30;92.90;;;;;;6038963;23;95693;-70
2022/04/22 03:36:16;;;;;;;7.15;4.97;;;9.20;92.90;;;;;;6039613;23;92459;-70
2022/04/22 03:38:47;;;;;;;8.30;5.20;;;9.30;92.90;;;;;;6066045;23;92037;-70
2022/04/22 03:41:14;;;;;;;10.82;6.05;;;9.20;93.00;;;;;;6064944;23;93203;-70
2022/04/22 03:43:42;;;;;;;9.48;5.75;;;9.20;93.10;;;;;;6065225;23;93074;-70
2022/04/22 03:46:09;;;;;;;10.38;4.80;;;9.10;93.10;;;;;;6063703;23;94705;-70
2022/04/22 03:48:36;;;;;;;7.45;6.07;;;9.10;93.10;;;;;;6065379;23;92427;-70
2022/04/22 03:51:03;;;;;;;8.07;4.90;;;9.10;93.00;;;;;;6040874;23;93093;-70
2022/04/22 03:53:30;;;;;;;6.97;4.90;;;9.10;93.00;;;;;;6066372;23;92977;-70
2022/04/22 03:58:10;;;;;;;7.88;5.07;;;9.00;93.10;;;;;;6066926;23;92425;-70
2022/04/22 03:58:44;;;;;;;7.75;5.13;;;9.00;93.10;;;;;;6041068;23;92906;-70
2022/04/22 04:01:10;;;;;;;6.40;5.10;;;9.00;93.10;;;;;;6066016;23;100797;-70
2022/04/22 04:03:37;;;;;;;7.50;5.18;;;8.90;93.20;;;;;;6067016;23;92823;-70
2022/04/22 04:06:07;;;;;;;8.95;5.82;;;8.90;93.30;;;;;;6066890;23;92394;-71
2022/04/22 04:08:34;;;;;;;7.10;5.57;;;8.90;93.30;;;;;;6066494;23;92410;-70
2022/04/22 04:16:34;;;;;;;7.75;6.13;;;8.90;93.30;;;;;;6067022;23;92757;-70
2022/04/22 04:24:31;;;;;;;8.07;5.65;;;8.80;93.30;;;;;;6040660;23;95502;-70
2022/04/22 04:26:59;;;;;;;8.10;5.63;;;8.80;93.40;;;;;;6066831;23;92307;-70
2022/04/22 04:29:26;;;;;;;8.60;5.22;;;8.80;93.40;;;;;;6066884;23;91613;-70
2022/04/22 04:31:54;;;;;;;8.75;5.13;;;8.80;93.40;;;;;;6066039;23;93186;-70
2022/04/22 04:34:21;;;;;;;7.78;5.28;;;8.80;93.30;;;;;;6040396;23;92969;-70
2022/04/22 04:36:48;;;;;;;7.97;5.18;;;8.80;93.20;;;;;;6015352;23;94766;-70
2022/04/22 04:39:15;;;;;;;7.20;4.80;;;8.80;93.20;;;;;;6040404;23;96291;-70
2022/04/22 04:41:41;;;;;;;11.05;5.47;;;8.80;93.10;;;;;;6040905;23;93110;-70
2022/04/22 04:44:09;;;;;;;7.18;5.43;;;8.80;93.20;;;;;;6040345;23;95753;-70
2022/04/22 04:46:36;;;;;;;6.32;5.28;;;8.80;93.10;;;;;;6066188;23;92326;-70
2022/04/22 04:49:03;;;;;;;4.85;4.30;;;8.80;93.10;;;;;;6016617;23;92505;-70
2022/04/22 04:51:30;;;;;;;6.57;4.95;;;8.80;93.10;;;;;;6040768;23;93262;-70
2022/04/22 04:53:57;;;;;;;8.57;4.80;;;8.90;92.90;;;;;;6041046;23;92251;-70
2022/04/22 04:56:24;;;;;;;7.10;5.20;;;8.80;92.80;;;;;;6040649;23;92569;-70
2022/04/22 04:58:51;;;;;;;6.68;4.95;;;8.90;92.80;;;;;;6041018;23;92499;-70
2022/04/22 05:01:18;;;;;;;7.50;4.63;;;8.90;92.80;;;;;;6064749;23;95548;-70
2022/04/22 05:03:45;;;;;;;6.05;5.05;;;9.00;92.90;;;;;;6015975;23;106432;-70
2022/04/22 05:06:12;;;;;;;8.32;4.63;;;9.20;92.70;;;;;;6040673;23;92422;-70
2022/04/22 05:08:39;;;;;;;9.20;5.38;;;9.40;92.20;;;;;;6040248;23;92393;-70
2022/04/22 05:11:06;;;;;;;7.22;5.50;;;9.50;91.90;;;;;;6066521;23;93284;-70
2022/04/22 05:13:33;;;;;;;7.45;5.13;;;9.50;91.60;;;;;;6065857;23;92404;-70
2022/04/22 05:16:00;;;;;;;6.13;4.95;;;9.50;91.70;;;;;;6040900;23;92390;-70
2022/04/22 05:18:27;;;;;;;6.18;4.80;;;9.50;91.70;;;;;;6066927;23;91637;-70
2022/04/22 05:20:54;;;;;;;6.53;4.90;;;9.60;91.90;;;;;;6066608;23;93250;-70
2022/04/22 05:23:21;;;;;;;7.30;4.55;;;9.90;91.30;;;;;;6039764;23;95386;-70
2022/04/22 05:25:49;;;;;;;4.82;3.88;;;10.40;90.70;;;;;;6039002;23;99194;-70
2022/04/22 05:28:15;;;;;;;6.97;4.68;;;10.80;90.10;;;;;;6066020;23;92372;-70
2022/04/22 05:33:29;;;;;;;7.03;4.88;;;11.50;86.80;;;;;;6065445;23;93282;-70
2022/04/22 05:35:57;;;;;;;4.85;4.25;;;11.90;85.50;;;;;;6066415;23;92383;-70
2022/04/22 05:38:24;;;;;;;6.00;4.82;;;12.20;84.40;;;;;;6066135;23;92321;-71
2022/04/22 05:40:51;;;;;;;5.88;4.63;;;12.30;83.90;;;;;;6040158;23;95612;-70
2022/04/22 05:43:18;;;;;;;6.10;5.53;;;12.40;84.10;;;;;;6066578;23;92881;-70
2022/04/22 05:45:44;;;;;;;8.25;4.63;;;12.60;83.10;;;;;;6040500;23;92461;-70
2022/04/22 05:48:12;;;;;;;6.63;4.95;;;12.60;83.20;;;;;;6040140;23;92404;-70
2022/04/22 05:50:39;;;;;;;7.25;4.75;;;12.70;82.40;;;;;;6013573;23;111134;-70
2022/04/22 05:53:06;;;;;;;7.18;4.88;;;12.80;81.70;;;;;;6065825;23;95334;-70
2022/04/22 05:55:32;;;;;;;7.35;5.30;;;12.60;81.90;;;;;;6039927;23;92471;-70
2022/04/22 05:58:00;;;;;;;6.07;4.80;;;12.40;82.50;;;;;;6066324;23;92426;-71
2022/04/22 06:00:32;;;;;;;5.53;4.95;;;12.20;83.60;;;;;;6065805;23;93213;-69
2022/04/22 06:03:00;;;;;;;7.47;4.60;;;12.10;83.60;;;;;;6016135;23;94015;-70
2022/04/22 06:05:27;;;;;;;5.70;4.60;;;12.40;83.30;;;;;;6040275;23;92439;-69
2022/04/22 06:10:41;;;;;;;5.68;4.82;;;13.50;79.90;;;;;;6065720;23;93124;-70
2022/04/22 06:13:08;;;;;;;6.80;5.05;;;13.80;79.10;;;;;;6038913;23;95486;-69
2022/04/22 06:15:36;;;;;;;6.43;4.38;;;13.90;77.70;;;;;;6064242;23;95091;-70
2022/04/22 06:18:03;;;;;;;7.03;5.07;;;14.10;77.10;;;;;;6066057;23;92420;-70
2022/04/22 06:20:30;;;;;;;4.93;4.28;;;14.10;76.90;;;;;;6015593;23;95864;-70
2022/04/22 06:22:57;;;;;;;6.68;4.78;;;13.70;77.30;;;;;;6065915;23;92661;-70
2022/04/22 06:25:25;;;;;;;5.13;4.50;;;13.80;77.80;;;;;;6040254;23;97480;-70
2022/04/22 06:27:52;;;;;;;5.60;4.30;;;14.20;76.70;;;;;;6065798;23;92489;-70
2022/04/22 06:30:21;;;;;;;6.75;4.90;;;14.30;76.10;;;;;;6039790;23;96048;-70
2022/04/22 06:32:50;;;;;;;5.53;4.70;;;14.30;75.80;;;;;;6040182;23;92918;-70
2022/04/22 06:35:18;;;;;;;6.30;4.60;;;14.10;76.70;;;;;;6039854;23;92811;-69
2022/04/22 06:37:47;;;;;;;6.53;4.10;;;14.00;77.40;;;;;;6065560;23;92571;-69
2022/04/22 06:45:49;;;;;;;4.85;4.13;;;14.40;75.50;;;;;;6065748;23;92365;-70
2022/04/22 06:48:19;;;;;;;5.15;3.97;;;14.40;76.20;;;;;;6065877;23;92427;-70
2022/04/22 06:51:06;;;;;;;5.90;4.43;;;14.40;75.90;;;;;;6065690;23;92416;-70
2022/04/22 06:53:34;;;;;;;6.45;4.38;;;14.20;76.10;;;;;;6065306;23;93294;-70
2022/04/22 06:56:04;;;;;;;6.35;3.70;;;14.20;75.90;;;;;;6039887;23;92525;-70
2022/04/22 06:58:33;;;;;;;5.78;3.63;;;13.90;76.00;;;;;;6040751;23;98316;-69
2022/04/22 07:01:00;;;;;;;5.38;3.80;;;13.80;77.00;;;;;;6065676;23;93317;-70
2022/04/22 07:03:27;;;;;;;4.78;4.30;;;13.60;77.50;;;;;;6039887;23;92575;-70
2022/04/22 07:05:54;;;;;;;4.15;3.35;;;13.50;78.00;;;;;;6037736;23;95326;-70
2022/04/22 07:08:21;;;;;;;4.40;3.90;;;13.50;77.40;;;;;;6040129;23;92522;-70
2022/04/22 07:10:50;;;;;;;5.05;3.70;;;13.60;77.90;;;;;;6065294;23;93178;-70
2022/04/22 07:13:18;;;;;;;4.28;3.88;;;13.80;76.90;;;;;;6065397;23;92841;-70
2022/04/22 07:15:47;;;;;;;4.35;3.58;;;14.00;76.80;;;;;;6040132;23;92776;-70
2022/04/22 07:18:15;;;;;;;4.60;3.47;;;14.00;75.90;;;;;;6065785;23;92405;-70
2022/04/22 07:20:43;;;;;;;3.47;3.10;;;14.00;74.80;;;;;;6038499;23;108869;-70
2022/04/22 07:23:12;;;;;;;4.10;3.30;;;14.00;75.40;;;;;;6015710;23;95386;-70
2022/04/22 07:25:39;;;;;;;4.50;3.42;;;14.30;75.80;;;;;;6017446;23;92407;-71
2022/04/22 07:28:06;;;;;;;4.68;3.55;;;14.50;75.10;;;;;;6040718;23;92542;-71
2022/04/22 07:30:34;;;;;;;4.28;3.35;;;14.80;74.80;;;;;;6065154;23;95572;-70
2022/04/22 07:33:01;;;;;;;4.18;3.78;;;15.10;74.10;;;;;;6039921;23;96789;-70
2022/04/22 07:35:28;;;;;;;5.30;3.13;;;15.10;72.30;;;;;;6041029;23;92412;-71
2022/04/22 07:37:55;;;;;;;6.18;3.42;;;15.30;72.30;;;;;;6066488;23;92392;-71
2022/04/22 07:40:23;;;;;;;4.55;4.00;;;15.40;71.70;;;;;;6066667;23;93252;-71
2022/04/22 07:48:38;;;;;;;4.07;3.22;;;15.20;71.50;;;;;;6067111;23;91766;-71
2022/04/22 07:51:05;;;;;;;5.22;4.75;;;15.30;71.80;;;;;;6066059;23;93133;-71
2022/04/22 07:53:41;;;;;;;4.18;3.55;;;15.60;71.60;;;;;;6040339;23;95462;-71
2022/04/22 07:56:08;;;;;;;4.78;4.20;;;16.30;69.20;;;;;;6039609;23;94739;-71
2022/04/22 07:58:36;;;;;;;7.43;4.93;;;16.80;69.10;;;;;;6066803;23;92444;-71
2022/04/22 08:01:03;;;;;;;6.72;5.53;;;17.50;66.90;;;;;;6040556;23;95176;-71
2022/04/22 08:03:31;;;;;;;5.40;4.95;;;18.10;64.40;;;;;;6066545;23;92921;-71
2022/04/22 08:05:58;;;;;;;5.53;5.15;;;18.80;62.20;;;;;;6016646;23;92473;-71
2022/04/22 08:08:28;;;;;;;5.30;4.90;;;19.50;59.80;;;;;;6040645;23;92474;-71
2022/04/22 08:10:55;;;;;;;5.55;5.05;;;19.90;58.20;;;;;;6066388;23;93163;-71
2022/04/22 08:13:25;;;;;;;6.22;5.05;;;20.40;57.60;;;;;;6040648;23;94020;-71
2022/04/22 08:15:53;;;;;;;5.30;4.90;;;20.90;53.20;;;;;;6040294;23;92406;-72
2022/04/22 08:18:20;;;;;;;6.55;6.13;;;21.20;52.80;;;;;;6041309;23;92490;-72
2022/04/22 08:20:47;;;;;;;6.97;6.47;;;21.60;51.00;;;;;;6038692;23;97991;-72
2022/04/22 08:23:14;;;;;;;5.60;5.30;;;21.90;49.90;;;;;;6066419;23;95165;-71
2022/04/22 08:25:41;;;;;;;5.07;4.78;;;22.10;48.70;;;;;;6066708;23;92315;-71
2022/04/22 08:28:08;;;;;;;5.25;4.75;;;22.00;48.30;;;;;;6066318;23;92415;-72
2022/04/22 08:30:35;;;;;;;6.68;6.20;;;22.10;48.00;;;;;;6017008;23;93245;-72
2022/04/22 08:33:02;;;;;;;5.50;5.00;;;22.20;47.70;;;;;;6039803;23;95687;-72
2022/04/22 08:35:29;;;;;;;4.30;3.88;;;22.50;46.90;;;;;;6066242;23;92411;-72
2022/04/22 08:37:59;;;;;;;5.95;5.55;;;22.30;47.60;;;;;;6066844;23;91650;-72
2022/04/22 08:40:27;;;;;;;5.00;4.45;;;22.20;47.30;;;;;;6066137;23;93138;-71
2022/04/22 08:42:54;;;;;;;5.50;5.05;;;22.20;47.10;;;;;;6066099;23;92944;-72
2022/04/22 08:45:25;;;;;;;4.57;4.18;;;22.20;47.00;;;;;;6039085;23;94814;-71
2022/04/22 08:50:42;;;;;;;4.05;3.42;;;21.60;46.50;;;;;;6044861;23;93212;-71
2022/04/22 08:53:12;;;;;;;3.67;3.28;;;21.30;47.90;;;;;;6040602;23;92861;-71
2022/04/22 08:55:43;;;;;;;5.32;3.20;;;20.60;49.90;;;;;;6066511;23;92322;-71
2022/04/22 08:58:10;;;;;;;3.53;3.22;;;19.80;51.10;;;;;;6066344;23;92490;-71
2022/04/22 09:00:41;;;;;;;6.53;4.30;;;19.40;53.30;;;;;;6040268;23;96015;-71
2022/04/22 09:03:09;;;;;;;6.32;3.15;;;19.00;54.60;;;;;;6066578;23;92849;-71
2022/04/22 09:05:37;;;;;;;5.40;3.15;;;18.60;56.60;;;;;;6016610;23;92431;-71
2022/04/22 09:08:07;;;;;;;4.28;3.00;;;18.20;56.20;;;;;;6040136;23;99707;-71
2022/04/22 09:10:38;;;;;;;3.50;3.20;;;17.80;58.60;;;;;;6064737;23;95670;-71
2022/04/22 09:13:10;;;;;;;5.65;4.07;;;17.50;59.70;;;;;;6039902;23;97827;-71
2022/04/22 09:15:39;;;;;;;6.00;2.80;;;17.40;61.60;;;;;;6016862;23;92908;-71
2022/04/22 09:18:26;;;;;;;3.72;2.60;;;17.00;61.90;;;;;;6066503;23;92346;-71
2022/04/22 09:20:56;;;;;;;5.13;2.85;;;16.80;61.40;;;;;;6015440;23;105982;-71
2022/04/22 09:23:29;;;;;;;3.85;3.20;;;16.70;61.70;;;;;;6040038;23;95317;-71
2022/04/22 09:25:56;;;;;;;5.90;3.40;;;16.60;62.50;;;;;;6066259;23;92426;-71
2022/04/22 09:28:23;;;;;;;7.57;3.33;;;16.50;63.30;;;;;;6066863;23;91702;-71
2022/04/22 09:31:01;;;;;;;8.30;3.22;;;16.50;62.40;;;;;;6040099;23;94722;-71
2022/04/22 09:33:45;;;;;;;4.63;3.38;;;16.50;62.30;;;;;;6039690;23;95631;-70
2022/04/22 09:45:04;;;;;;;7.78;3.25;;;16.30;64.00;;;;;;6065812;23;92960;-70
2022/04/22 09:47:32;;;;;;;4.80;3.47;;;16.30;64.60;;;;;;6066332;23;92306;-70
2022/04/22 09:50:10;;;;;;;4.32;3.28;;;16.30;64.60;;;;;;6040616;23;92514;-71
2022/04/22 09:52:46;;;;;;;4.22;3.90;;;16.40;64.00;;;;;;6016282;23;95362;-71
2022/04/22 09:55:15;;;;;;;6.80;3.53;;;16.30;64.60;;;;;;6066026;23;93034;-71
2022/04/22 09:57:57;;;;;;;5.32;3.88;;;16.30;66.10;;;;;;6066321;23;92465;-71
2022/04/22 10:00:30;;;;;;;6.38;3.80;;;16.40;66.50;;;;;;6066249;23;92411;-71
2022/04/22 10:02:58;;;;;;;5.70;3.90;;;16.30;65.60;;;;;;6064615;23;95627;-71
2022/04/22 10:05:26;;;;;;;4.35;3.95;;;16.20;66.00;;;;;;6065730;23;95239;-70
2022/04/22 10:07:56;;;;;;;6.40;3.58;;;16.30;65.50;;;;;;6066275;23;92435;-70
2022/04/22 10:10:36;;;;;;;4.60;4.13;;;16.30;66.10;;;;;;6065865;23;92399;-70
2022/04/22 10:13:04;;;;;;;4.40;3.60;;;16.30;66.70;;;;;;6039597;23;96090;-71
2022/04/22 10:15:37;;;;;;;4.60;3.85;;;16.20;66.50;;;;;;6065873;23;92502;-71
2022/04/22 10:18:07;;;;;;;4.15;3.40;;;16.20;67.70;;;;;;6016368;23;92618;-70
2022/04/22 10:20:35;;;;;;;4.80;3.42;;;16.20;67.90;;;;;;6040235;23;91672;-70
2022/04/22 10:23:03;;;;;;;4.40;4.00;;;16.20;67.10;;;;;;6065644;23;95482;-70
2022/04/22 10:25:31;;;;;;;4.97;4.13;;;16.30;66.20;;;;;;6015816;23;95577;-70
2022/04/22 10:28:02;;;;;;;4.80;3.83;;;16.40;66.40;;;;;;6038432;23;94924;-70
2022/04/22 10:30:30;;;;;;;6.90;4.15;;;16.50;66.70;;;;;;6040062;23;92490;-70
2022/04/22 10:32:58;;;;;;;5.90;4.10;;;16.50;66.60;;;;;;6040169;23;93087;-70
2022/04/22 10:35:25;;;;;;;5.43;3.90;;;16.50;66.60;;;;;;6039221;23;95357;-70
2022/04/22 10:37:53;;;;;;;7.25;4.10;;;16.50;66.60;;;;;;6066153;23;92405;-71
2022/04/22 10:40:22;;;;;;;7.75;4.05;;;16.50;67.30;;;;;;6040012;23;92523;-70
2022/04/22 10:42:51;;;;;;;6.18;3.75;;;16.60;65.80;;;;;;6065990;23;93427;-70
2022/04/22 10:48:25;;;;;;;6.78;4.30;;;16.90;64.90;;;;;;6065788;23;92386;-70
2022/04/22 10:51:02;;;;;;;4.40;4.00;;;16.90;65.50;;;;;;6066046;23;92873;-71
2022/04/22 10:53:34;;;;;;;6.60;4.65;;;16.80;66.10;;;;;;6063832;23;95595;-70
2022/04/22 10:56:26;;;;;;;6.82;4.38;;;16.90;65.20;;;;;;6065452;23;95287;-71
2022/04/22 10:59:15;;;;;;;5.57;4.03;;;17.10;65.00;;;;;;6066406;23;92685;-70
2022/04/22 11:01:46;;;;;;;6.63;4.07;;;17.20;64.70;;;;;;6041294;23;92500;-70
2022/04/22 11:04:20;;;;;;;4.03;3.63;;;17.20;64.30;;;;;;6066575;23;93184;-70
2022/04/22 11:06:47;;;;;;;6.07;4.30;;;17.30;62.60;;;;;;6041219;23;92671;-70
2022/04/22 11:09:28;;;;;;;6.22;4.88;;;17.20;62.40;;;;;;6066768;23;92446;-70
2022/04/22 11:11:57;;;;;;;4.55;3.92;;;17.30;63.60;;;;;;6067401;23;91696;-70
2022/04/22 11:14:32;;;;;;;4.97;3.63;;;17.30;63.00;;;;;;6066476;23;92479;-70
2022/04/22 11:17:33;;;;;;;5.47;3.92;;;17.30;62.30;;;;;;6066799;23;92448;-71
2022/04/22 11:20:00;;;;;;;6.60;4.70;;;17.40;61.30;;;;;;6039593;23;94837;-70
2022/04/22 11:22:58;;;;;;;5.53;4.53;;;17.40;61.50;;;;;;6040634;23;92534;-71
2022/04/22 11:25:27;;;;;;;7.05;4.80;;;17.60;62.30;;;;;;6066495;23;93349;-71
2022/04/22 11:27:55;;;;;;;6.10;4.45;;;17.60;61.60;;;;;;6041023;23;93017;-70
2022/04/22 11:30:23;;;;;;;5.00;4.40;;;17.60;61.70;;;;;;6041040;23;92323;-70
2022/04/22 11:32:56;;;;;;;4.80;4.00;;;17.60;61.00;;;;;;6016715;23;93442;-70
2022/04/22 11:35:33;;;;;;;6.70;4.68;;;17.70;61.50;;;;;;6066243;23;93254;-70
2022/04/22 11:38:03;;;;;;;7.45;4.35;;;17.70;61.60;;;;;;6017028;23;94014;-70
2022/04/22 11:40:40;;;;;;;5.18;3.97;;;17.80;62.10;;;;;;6066618;23;92283;-71
2022/04/22 11:43:11;;;;;;;5.18;4.10;;;17.80;61.70;;;;;;6040958;23;92419;-71
2022/04/22 11:45:41;;;;;;;4.47;4.07;;;17.80;62.10;;;;;;6039113;23;98076;-71
2022/04/22 11:48:13;;;;;;;4.97;4.30;;;17.90;61.40;;;;;;6040711;23;98265;-71
2022/04/22 11:50:43;;;;;;;5.75;4.38;;;18.00;61.20;;;;;;6066974;23;92327;-71
2022/04/22 11:53:22;;;;;;;7.22;4.57;;;18.00;60.50;;;;;;6066337;23;95907;-71
2022/04/22 11:55:50;;;;;;;5.35;4.13;;;18.10;60.30;;;;;;6066428;23;93239;-71
2022/04/22 11:58:27;;;;;;;4.72;4.28;;;18.20;60.50;;;;;;6040097;23;95556;-71
2022/04/22 12:06:40;;;;;;;6.30;5.03;;;18.40;59.20;;;;;;6066222;23;92386;-71
2022/04/22 12:09:07;;;;;;;6.45;4.55;;;18.40;59.60;;;;;;6040140;23;95388;-71
2022/04/22 12:11:43;;;;;;;4.85;4.35;;;18.50;60.00;;;;;;6064488;23;94847;-71
2022/04/22 12:14:11;;;;;;;7.32;5.50;;;18.60;59.60;;;;;;6066722;23;92735;-70
2022/04/22 12:16:38;;;;;;;5.90;5.47;;;18.60;59.10;;;;;;6066228;23;93111;-71
2022/04/22 12:19:11;;;;;;;6.63;5.90;;;18.70;59.80;;;;;;6040888;23;93051;-71
2022/04/22 12:21:38;;;;;;;5.57;4.72;;;18.70;58.90;;;;;;6066132;23;92445;-71
2022/04/22 12:24:06;;;;;;;5.38;4.72;;;18.60;60.00;;;;;;6066823;23;92757;-71
2022/04/22 12:26:44;;;;;;;8.18;6.22;;;18.70;59.80;;;;;;6066207;23;93010;-71
2022/04/22 12:29:17;;;;;;;6.93;5.50;;;18.70;60.00;;;;;;6041267;23;93398;-71
2022/04/22 12:31:54;;;;;;;6.00;5.32;;;18.80;60.20;;;;;;6066258;23;92447;-71
2022/04/22 12:34:34;;;;;;;11.80;6.03;;;19.00;60.40;;;;;;6066356;23;92399;-71
2022/04/22 12:37:04;;;;;;;7.38;6.65;;;19.00;60.30;;;;;;6064803;23;95496;-71
2022/04/22 12:39:44;;;;;;;6.43;5.82;;;19.20;60.00;;;;;;6040376;23;95265;-71
2022/04/22 12:42:17;;;;;;;7.22;6.10;;;19.20;59.00;;;;;;6040766;23;92439;-71
2022/04/22 12:53:34;;;;;;;7.97;7.28;;;20.00;57.90;;;;;;6066389;23;92556;-71
2022/04/22 12:56:05;;;;;;;9.60;6.05;;;20.20;56.80;;;;;;6040878;23;91714;-72
2022/04/22 12:58:32;;;;;;;7.97;7.30;;;20.50;56.70;;;;;;6039771;23;94241;-72
2022/04/22 13:01:02;;;;;;;10.02;6.90;;;20.70;56.10;;;;;;6040110;23;95485;-71
2022/04/22 13:03:39;;;;;;;8.02;7.15;;;20.80;55.80;;;;;;6064650;23;94781;-71
2022/04/22 13:06:06;;;;;;;9.25;6.18;;;20.90;54.20;;;;;;6064893;23;92334;-72
2022/04/22 13:08:33;;;;;;;8.85;6.25;;;20.90;54.50;;;;;;6065998;23;93277;-71
2022/04/22 13:11:02;;;;;;;9.05;8.18;;;21.00;54.50;;;;;;6066259;23;93087;-71
2022/04/22 13:13:29;;;;;;;8.07;7.28;;;21.00;53.10;;;;;;6041013;23;92430;-71
2022/04/22 13:15:56;;;;;;;7.53;6.70;;;20.90;54.90;;;;;;6040202;23;92501;-71
2022/04/22 13:18:24;;;;;;;8.05;7.28;;;20.70;54.10;;;;;;6040559;23;93182;-71
2022/04/22 13:20:52;;;;;;;7.88;6.85;;;20.70;54.60;;;;;;6066457;23;92870;-71
2022/04/22 13:23:19;;;;;;;9.10;7.25;;;20.70;54.60;;;;;;6039454;23;109220;-71
2022/04/22 13:25:46;;;;;;;8.48;7.57;;;20.70;54.40;;;;;;6066145;23;92299;-71
2022/04/22 13:28:13;;;;;;;8.05;7.10;;;20.60;54.90;;;;;;6038611;23;97990;-72
2022/04/22 13:30:40;;;;;;;10.63;6.65;;;20.70;54.90;;;;;;6040180;23;95274;-71
2022/04/22 13:33:07;;;;;;;9.82;6.95;;;20.80;54.00;;;;;;6066101;23;92407;-72
2022/04/22 13:35:34;;;;;;;10.20;7.00;;;20.80;53.90;;;;;;6040308;23;92487;-71
2022/04/22 13:38:01;;;;;;;7.38;6.57;;;20.60;54.20;;;;;;6066103;23;93370;-71
2022/04/22 13:40:28;;;;;;;9.35;6.35;;;20.40;55.00;;;;;;6039754;23;95516;-71
2022/04/22 13:42:55;;;;;;;8.35;7.55;;;20.40;55.00;;;;;;6066544;23;92705;-71
2022/04/22 13:53:39;;;;;;;8.30;7.18;;;20.80;54.50;;;;;;6038854;23;94894;-71
2022/04/22 13:56:07;;;;;;;8.07;6.65;;;20.60;54.60;;;;;;6039986;23;92534;-71
2022/04/22 13:58:36;;;;;;;10.90;6.75;;;20.40;54.70;;;;;;6039870;23;94980;-71
2022/04/22 14:01:03;;;;;;;7.50;6.75;;;20.30;54.40;;;;;;6040407;23;92873;-71
2022/04/22 14:03:31;;;;;;;9.13;6.00;;;20.30;54.50;;;;;;6039831;23;92417;-71
2022/04/22 14:05:58;;;;;;;6.50;5.72;;;20.40;54.60;;;;;;6040058;23;92467;-71
2022/04/22 14:08:25;;;;;;;9.50;6.20;;;20.40;54.40;;;;;;6066066;23;93349;-71
2022/04/22 14:10:52;;;;;;;6.57;5.93;;;20.50;53.20;;;;;;6040504;23;93026;-71